sensor_id;sensor_type;location;lat;lon;timestamp;temperature;humidity
72326;DHT22;60278;47.980;18.780;2022-11-09T00:01:58;7.95;99.62
72326;DHT22;60278;47.980;18.780;2022-11-09T00:05:30;8.21;99.73
72326;DHT22;60278;47.980;18.780;2022-11-09T00:09:03;8.56;99.14
72326;DHT22;60278;47.980;18.780;2022-11-09T00:12:35;8.51;99.11
72326;DHT22;60278;47.980;18.780;2022-11-09T00:16:09;8.59;99.00
72326;DHT22;60278;47.980;18.780;2022-11-09T00:19:41;8.68;99.30
72326;DHT22;60278;47.980;18.780;2022-11-09T00:23:12;8.65;99.17
72326;DHT22;60278;47.980;18.780;2022-11-09T00:26:43;8.58;99.67
72326;DHT22;60278;47.980;18.780;2022-11-09T00:30:14;8.73;99.20
72326;DHT22;60278;47.980;18.780;2022-11-09T00:33:53;8.82;98.87
72326;DHT22;60278;47.980;18.780;2022-11-09T00:37:25;8.94;98.54
72326;DHT22;60278;47.980;18.780;2022-11-09T00:40:59;9.07;98.48
72326;DHT22;60278;47.980;18.780;2022-11-09T00:44:30;9.13;98.70
72326;DHT22;60278;47.980;18.780;2022-11-09T00:48:02;9.24;97.80
72326;DHT22;60278;47.980;18.780;2022-11-09T00:51:33;9.34;97.88
72326;DHT22;60278;47.980;18.780;2022-11-09T00:55:05;9.45;97.43
72326;DHT22;60278;47.980;18.780;2022-11-09T00:58:37;9.75;97.19
72326;DHT22;60278;47.980;18.780;2022-11-09T01:02:08;10.01;96.53
72326;DHT22;60278;47.980;18.780;2022-11-09T01:05:39;9.79;96.18
72326;DHT22;60278;47.980;18.780;2022-11-09T01:09:10;9.55;96.38
72326;DHT22;60278;47.980;18.780;2022-11-09T01:12:42;9.17;97.76
72326;DHT22;60278;47.980;18.780;2022-11-09T01:16:16;9.03;98.39
72326;DHT22;60278;47.980;18.780;2022-11-09T01:19:48;9.14;98.51
72326;DHT22;60278;47.980;18.780;2022-11-09T01:23:19;9.19;98.50
72326;DHT22;60278;47.980;18.780;2022-11-09T01:26:51;9.16;98.88
72326;DHT22;60278;47.980;18.780;2022-11-09T01:30:25;8.90;99.64
72326;DHT22;60278;47.980;18.780;2022-11-09T01:33:56;8.79;99.94
72326;DHT22;60278;47.980;18.780;2022-11-09T01:37:28;8.83;99.55
72326;DHT22;60278;47.980;18.780;2022-11-09T01:40:59;8.73;99.99
72326;DHT22;60278;47.980;18.780;2022-11-09T01:44:31;8.89;99.70
72326;DHT22;60278;47.980;18.780;2022-11-09T01:48:15;8.79;99.99
72326;DHT22;60278;47.980;18.780;2022-11-09T01:51:54;9.59;98.13
72326;DHT22;60278;47.980;18.780;2022-11-09T01:55:27;10.16;96.09
72326;DHT22;60278;47.980;18.780;2022-11-09T01:59:03;10.36;95.29
72326;DHT22;60278;47.980;18.780;2022-11-09T02:02:36;10.40;95.11
72326;DHT22;60278;47.980;18.780;2022-11-09T02:06:11;10.53;94.62
72326;DHT22;60278;47.980;18.780;2022-11-09T02:09:52;10.65;93.91
72326;DHT22;60278;47.980;18.780;2022-11-09T02:13:26;10.68;93.75
72326;DHT22;60278;47.980;18.780;2022-11-09T02:16:58;10.74;93.41
72326;DHT22;60278;47.980;18.780;2022-11-09T02:20:29;10.74;93.40
72326;DHT22;60278;47.980;18.780;2022-11-09T02:24:03;10.74;93.43
72326;DHT22;60278;47.980;18.780;2022-11-09T02:27:34;10.70;93.79
72326;DHT22;60278;47.980;18.780;2022-11-09T02:31:09;10.75;93.69
72326;DHT22;60278;47.980;18.780;2022-11-09T02:34:44;10.88;92.82
72326;DHT22;60278;47.980;18.780;2022-11-09T02:38:15;10.75;93.77
72326;DHT22;60278;47.980;18.780;2022-11-09T02:41:54;10.60;94.00
72326;DHT22;60278;47.980;18.780;2022-11-09T02:45:26;9.91;96.85
72326;DHT22;60278;47.980;18.780;2022-11-09T02:48:59;9.55;98.43
72326;DHT22;60278;47.980;18.780;2022-11-09T02:52:30;9.58;98.28
72326;DHT22;60278;47.980;18.780;2022-11-09T02:56:01;9.59;98.11
72326;DHT22;60278;47.980;18.780;2022-11-09T02:59:32;9.54;98.38
72326;DHT22;60278;47.980;18.780;2022-11-09T03:03:04;9.57;98.51
72326;DHT22;60278;47.980;18.780;2022-11-09T03:06:36;9.51;98.81
72326;DHT22;60278;47.980;18.780;2022-11-09T03:10:17;9.47;98.96
72326;DHT22;60278;47.980;18.780;2022-11-09T03:13:48;9.40;99.22
72326;DHT22;60278;47.980;18.780;2022-11-09T03:17:19;9.31;99.71
72326;DHT22;60278;47.980;18.780;2022-11-09T03:20:50;9.41;99.25
72326;DHT22;60278;47.980;18.780;2022-11-09T03:24:21;9.34;99.50
72326;DHT22;60278;47.980;18.780;2022-11-09T03:28:02;9.43;99.11
72326;DHT22;60278;47.980;18.780;2022-11-09T03:31:33;9.28;99.56
72326;DHT22;60278;47.980;18.780;2022-11-09T03:35:08;9.35;99.61
72326;DHT22;60278;47.980;18.780;2022-11-09T03:38:40;9.30;99.82
72326;DHT22;60278;47.980;18.780;2022-11-09T03:42:11;9.28;99.97
72326;DHT22;60278;47.980;18.780;2022-11-09T03:45:43;9.21;99.93
72326;DHT22;60278;47.980;18.780;2022-11-09T03:49:14;9.27;99.86
72326;DHT22;60278;47.980;18.780;2022-11-09T03:52:46;9.21;99.99
72326;DHT22;60278;47.980;18.780;2022-11-09T03:56:17;9.26;99.99
72326;DHT22;60278;47.980;18.780;2022-11-09T03:59:48;9.16;99.99
72326;DHT22;60278;47.980;18.780;2022-11-09T04:03:19;9.20;99.99
72326;DHT22;60278;47.980;18.780;2022-11-09T04:06:50;9.38;99.24
72326;DHT22;60278;47.980;18.780;2022-11-09T04:10:22;9.44;99.04
72326;DHT22;60278;47.980;18.780;2022-11-09T04:13:53;9.35;99.53
72326;DHT22;60278;47.980;18.780;2022-11-09T04:17:24;9.50;98.65
72326;DHT22;60278;47.980;18.780;2022-11-09T04:20:57;9.37;99.00
72326;DHT22;60278;47.980;18.780;2022-11-09T04:24:28;9.27;99.13
72326;DHT22;60278;47.980;18.780;2022-11-09T04:28:01;9.44;98.52
72326;DHT22;60278;47.980;18.780;2022-11-09T04:31:32;9.41;98.75
72326;DHT22;60278;47.980;18.780;2022-11-09T04:35:03;9.28;99.17
72326;DHT22;60278;47.980;18.780;2022-11-09T04:38:34;9.21;99.31
72326;DHT22;60278;47.980;18.780;2022-11-09T04:42:06;9.16;99.41
72326;DHT22;60278;47.980;18.780;2022-11-09T04:45:37;9.17;99.29
72326;DHT22;60278;47.980;18.780;2022-11-09T04:49:08;9.12;99.77
72326;DHT22;60278;47.980;18.780;2022-11-09T04:52:39;9.16;99.82
72326;DHT22;60278;47.980;18.780;2022-11-09T04:56:10;9.21;99.52
72326;DHT22;60278;47.980;18.780;2022-11-09T04:59:41;9.21;99.13
72326;DHT22;60278;47.980;18.780;2022-11-09T05:03:13;9.30;99.08
72326;DHT22;60278;47.980;18.780;2022-11-09T05:06:44;9.31;98.96
72326;DHT22;60278;47.980;18.780;2022-11-09T05:10:15;9.41;98.95
72326;DHT22;60278;47.980;18.780;2022-11-09T05:13:46;9.79;97.14
72326;DHT22;60278;47.980;18.780;2022-11-09T05:17:17;9.98;96.15
72326;DHT22;60278;47.980;18.780;2022-11-09T05:20:49;10.09;95.79
72326;DHT22;60278;47.980;18.780;2022-11-09T05:24:19;10.13;95.61
72326;DHT22;60278;47.980;18.780;2022-11-09T05:27:51;10.13;95.78
72326;DHT22;60278;47.980;18.780;2022-11-09T05:31:22;10.16;95.60
72326;DHT22;60278;47.980;18.780;2022-11-09T05:34:53;10.05;96.17
72326;DHT22;60278;47.980;18.780;2022-11-09T05:38:24;10.10;95.65
72326;DHT22;60278;47.980;18.780;2022-11-09T05:41:55;9.85;97.03
72326;DHT22;60278;47.980;18.780;2022-11-09T05:45:26;9.57;97.59
72326;DHT22;60278;47.980;18.780;2022-11-09T05:48:57;9.71;97.20
72326;DHT22;60278;47.980;18.780;2022-11-09T05:52:28;9.67;97.34
72326;DHT22;60278;47.980;18.780;2022-11-09T05:56:01;9.43;98.38
72326;DHT22;60278;47.980;18.780;2022-11-09T05:59:32;9.54;98.30
72326;DHT22;60278;47.980;18.780;2022-11-09T06:03:06;9.48;98.78
72326;DHT22;60278;47.980;18.780;2022-11-09T06:06:37;9.55;98.44
72326;DHT22;60278;47.980;18.780;2022-11-09T06:10:08;9.58;98.46
72326;DHT22;60278;47.980;18.780;2022-11-09T06:13:39;9.61;98.31
72326;DHT22;60278;47.980;18.780;2022-11-09T06:17:10;9.64;98.38
72326;DHT22;60278;47.980;18.780;2022-11-09T06:20:41;9.59;98.49
72326;DHT22;60278;47.980;18.780;2022-11-09T06:24:12;9.70;98.18
72326;DHT22;60278;47.980;18.780;2022-11-09T06:27:43;9.70;98.05
72326;DHT22;60278;47.980;18.780;2022-11-09T06:31:15;9.74;98.09
72326;DHT22;60278;47.980;18.780;2022-11-09T06:34:46;9.74;98.29
72326;DHT22;60278;47.980;18.780;2022-11-09T06:38:19;9.89;97.37
72326;DHT22;60278;47.980;18.780;2022-11-09T06:41:50;10.06;96.83
72326;DHT22;60278;47.980;18.780;2022-11-09T06:45:21;10.14;95.96
72326;DHT22;60278;47.980;18.780;2022-11-09T06:48:52;10.40;94.78
72326;DHT22;60278;47.980;18.780;2022-11-09T06:52:23;10.52;94.37
72326;DHT22;60278;47.980;18.780;2022-11-09T06:56:00;10.57;93.67
72326;DHT22;60278;47.980;18.780;2022-11-09T06:59:32;10.68;93.94
72326;DHT22;60278;47.980;18.780;2022-11-09T07:03:04;10.90;91.95
72326;DHT22;60278;47.980;18.780;2022-11-09T07:06:39;10.33;95.35
72326;DHT22;60278;47.980;18.780;2022-11-09T07:10:18;10.33;94.99
72326;DHT22;60278;47.980;18.780;2022-11-09T07:13:59;10.24;96.39
72326;DHT22;60278;47.980;18.780;2022-11-09T07:17:33;10.29;95.87
72326;DHT22;60278;47.980;18.780;2022-11-09T07:21:07;10.47;95.21
72326;DHT22;60278;47.980;18.780;2022-11-09T07:24:49;10.34;95.40
72326;DHT22;60278;47.980;18.780;2022-11-09T07:32:21;10.61;95.08
72326;DHT22;60278;47.980;18.780;2022-11-09T07:36:01;10.59;95.95
72326;DHT22;60278;47.980;18.780;2022-11-09T07:39:41;10.59;95.49
72326;DHT22;60278;47.980;18.780;2022-11-09T07:47:15;10.77;95.23
72326;DHT22;60278;47.980;18.780;2022-11-09T07:50:58;10.91;94.63
72326;DHT22;60278;47.980;18.780;2022-11-09T07:54:41;11.02;94.16
72326;DHT22;60278;47.980;18.780;2022-11-09T07:58:33;11.10;93.03
72326;DHT22;60278;47.980;18.780;2022-11-09T08:02:16;11.14;92.39
72326;DHT22;60278;47.980;18.780;2022-11-09T08:06:01;11.07;92.07
72326;DHT22;60278;47.980;18.780;2022-11-09T08:10:08;10.95;92.42
72326;DHT22;60278;47.980;18.780;2022-11-09T08:13:43;10.97;92.57
72326;DHT22;60278;47.980;18.780;2022-11-09T08:17:41;10.98;92.29
72326;DHT22;60278;47.980;18.780;2022-11-09T08:21:20;11.18;91.96
72326;DHT22;60278;47.980;18.780;2022-11-09T08:25:07;11.49;90.13
72326;DHT22;60278;47.980;18.780;2022-11-09T08:28:46;11.79;89.07
72326;DHT22;60278;47.980;18.780;2022-11-09T08:32:26;11.87;88.06
72326;DHT22;60278;47.980;18.780;2022-11-09T08:40:05;12.00;88.31
72326;DHT22;60278;47.980;18.780;2022-11-09T08:43:37;11.77;90.03
72326;DHT22;60278;47.980;18.780;2022-11-09T08:47:22;11.82;89.65
72326;DHT22;60278;47.980;18.780;2022-11-09T08:51:01;11.53;91.38
72326;DHT22;60278;47.980;18.780;2022-11-09T08:54:35;11.44;91.43
72326;DHT22;60278;47.980;18.780;2022-11-09T08:58:11;11.51;91.52
72326;DHT22;60278;47.980;18.780;2022-11-09T09:01:42;11.52;91.83
72326;DHT22;60278;47.980;18.780;2022-11-09T09:05:22;11.62;91.64
72326;DHT22;60278;47.980;18.780;2022-11-09T09:09:02;11.87;91.03
72326;DHT22;60278;47.980;18.780;2022-11-09T09:12:41;11.73;91.44
72326;DHT22;60278;47.980;18.780;2022-11-09T09:16:14;11.35;92.59
72326;DHT22;60278;47.980;18.780;2022-11-09T09:20:04;11.42;92.38
72326;DHT22;60278;47.980;18.780;2022-11-09T09:23:51;11.51;89.76
72326;DHT22;60278;47.980;18.780;2022-11-09T09:27:23;11.60;89.91
72326;DHT22;60278;47.980;18.780;2022-11-09T09:31:00;11.65;88.74
72326;DHT22;60278;47.980;18.780;2022-11-09T09:34:32;11.66;88.19
72326;DHT22;60278;47.980;18.780;2022-11-09T09:38:04;11.65;88.62
72326;DHT22;60278;47.980;18.780;2022-11-09T09:41:54;11.65;88.29
72326;DHT22;60278;47.980;18.780;2022-11-09T09:45:32;11.72;87.87
72326;DHT22;60278;47.980;18.780;2022-11-09T09:49:13;11.84;87.25
72326;DHT22;60278;47.980;18.780;2022-11-09T09:53:02;11.86;87.51
72326;DHT22;60278;47.980;18.780;2022-11-09T09:56:58;11.94;87.15
72326;DHT22;60278;47.980;18.780;2022-11-09T10:00:37;12.11;86.81
72326;DHT22;60278;47.980;18.780;2022-11-09T10:04:23;12.48;86.22
72326;DHT22;60278;47.980;18.780;2022-11-09T10:12:17;13.24;84.08
72326;DHT22;60278;47.980;18.780;2022-11-09T10:16:17;13.48;83.49
72326;DHT22;60278;47.980;18.780;2022-11-09T10:27:35;13.78;81.75
72326;DHT22;60278;47.980;18.780;2022-11-09T10:31:18;13.23;83.40
72326;DHT22;60278;47.980;18.780;2022-11-09T10:35:04;13.10;84.15
72326;DHT22;60278;47.980;18.780;2022-11-09T10:38:42;14.64;83.17
72326;DHT22;60278;47.980;18.780;2022-11-09T10:42:32;16.41;78.49
72326;DHT22;60278;47.980;18.780;2022-11-09T10:46:21;17.57;75.69
72326;DHT22;60278;47.980;18.780;2022-11-09T10:54:31;14.36;79.06
72326;DHT22;60278;47.980;18.780;2022-11-09T10:58:38;14.04;80.07
72326;DHT22;60278;47.980;18.780;2022-11-09T11:02:45;13.88;80.80
72326;DHT22;60278;47.980;18.780;2022-11-09T11:06:35;13.99;81.33
72326;DHT22;60278;47.980;18.780;2022-11-09T11:10:25;13.37;82.75
72326;DHT22;60278;47.980;18.780;2022-11-09T11:14:16;13.17;84.51
72326;DHT22;60278;47.980;18.780;2022-11-09T11:18:17;12.73;85.09
72326;DHT22;60278;47.980;18.780;2022-11-09T11:22:19;12.79;85.83
72326;DHT22;60278;47.980;18.780;2022-11-09T11:26:19;12.73;86.23
72326;DHT22;60278;47.980;18.780;2022-11-09T11:30:17;12.65;86.97
72326;DHT22;60278;47.980;18.780;2022-11-09T11:34:12;12.45;88.16
72326;DHT22;60278;47.980;18.780;2022-11-09T11:38:34;12.59;87.83
72326;DHT22;60278;47.980;18.780;2022-11-09T11:46:47;12.40;88.78
72326;DHT22;60278;47.980;18.780;2022-11-09T12:23:02;12.61;89.74
72326;DHT22;60278;47.980;18.780;2022-11-09T12:27:32;12.55;86.27
72326;DHT22;60278;47.980;18.780;2022-11-09T12:31:47;12.38;87.36
72326;DHT22;60278;47.980;18.780;2022-11-09T12:35:39;12.11;86.68
72326;DHT22;60278;47.980;18.780;2022-11-09T12:39:49;11.93;88.22
72326;DHT22;60278;47.980;18.780;2022-11-09T12:47:42;11.98;86.86
72326;DHT22;60278;47.980;18.780;2022-11-09T12:51:32;11.84;87.86
72326;DHT22;60278;47.980;18.780;2022-11-09T12:55:42;12.04;87.90
72326;DHT22;60278;47.980;18.780;2022-11-09T12:59:43;11.89;87.63
72326;DHT22;60278;47.980;18.780;2022-11-09T13:03:38;11.79;88.64
72326;DHT22;60278;47.980;18.780;2022-11-09T13:07:46;11.83;88.41
72326;DHT22;60278;47.980;18.780;2022-11-09T13:11:40;11.84;88.60
72326;DHT22;60278;47.980;18.780;2022-11-09T13:15:31;11.79;88.76
72326;DHT22;60278;47.980;18.780;2022-11-09T13:23:34;11.73;89.17
72326;DHT22;60278;47.980;18.780;2022-11-09T13:27:47;11.62;88.82
72326;DHT22;60278;47.980;18.780;2022-11-09T13:39:56;11.63;89.79
72326;DHT22;60278;47.980;18.780;2022-11-09T13:43:45;11.55;89.41
72326;DHT22;60278;47.980;18.780;2022-11-09T13:47:35;11.51;90.03
72326;DHT22;60278;47.980;18.780;2022-11-09T13:55:38;11.53;90.07
72326;DHT22;60278;47.980;18.780;2022-11-09T13:59:43;11.72;90.66
72326;DHT22;60278;47.980;18.780;2022-11-09T14:03:35;11.63;90.45
72326;DHT22;60278;47.980;18.780;2022-11-09T14:07:29;11.67;90.97
72326;DHT22;60278;47.980;18.780;2022-11-09T14:23:52;11.59;90.25
72326;DHT22;60278;47.980;18.780;2022-11-09T14:27:51;11.62;90.27
72326;DHT22;60278;47.980;18.780;2022-11-09T14:31:45;11.63;90.51
72326;DHT22;60278;47.980;18.780;2022-11-09T14:35:35;11.52;90.79
72326;DHT22;60278;47.980;18.780;2022-11-09T14:39:29;11.40;90.86
72326;DHT22;60278;47.980;18.780;2022-11-09T14:43:38;11.47;91.57
72326;DHT22;60278;47.980;18.780;2022-11-09T14:47:32;11.59;91.13
72326;DHT22;60278;47.980;18.780;2022-11-09T14:51:35;11.56;91.15
72326;DHT22;60278;47.980;18.780;2022-11-09T14:55:25;11.42;92.16
72326;DHT22;60278;47.980;18.780;2022-11-09T14:59:18;11.36;92.03
72326;DHT22;60278;47.980;18.780;2022-11-09T15:03:29;11.33;91.99
72326;DHT22;60278;47.980;18.780;2022-11-09T15:07:20;11.33;92.06
72326;DHT22;60278;47.980;18.780;2022-11-09T15:11:11;11.32;92.19
72326;DHT22;60278;47.980;18.780;2022-11-09T15:15:04;11.29;92.07
72326;DHT22;60278;47.980;18.780;2022-11-09T15:18:54;11.35;91.21
72326;DHT22;60278;47.980;18.780;2022-11-09T15:23:03;11.22;91.54
72326;DHT22;60278;47.980;18.780;2022-11-09T15:26:54;11.22;91.80
72326;DHT22;60278;47.980;18.780;2022-11-09T15:30:47;11.18;91.99
72326;DHT22;60278;47.980;18.780;2022-11-09T15:34:40;11.11;91.78
72326;DHT22;60278;47.980;18.780;2022-11-09T15:38:44;10.98;92.35
72326;DHT22;60278;47.980;18.780;2022-11-09T15:42:34;11.01;92.13
72326;DHT22;60278;47.980;18.780;2022-11-09T15:46:26;11.04;92.39
72326;DHT22;60278;47.980;18.780;2022-11-09T15:50:20;11.08;92.39
72326;DHT22;60278;47.980;18.780;2022-11-09T15:54:10;10.91;92.74
72326;DHT22;60278;47.980;18.780;2022-11-09T15:57:59;10.95;92.77
72326;DHT22;60278;47.980;18.780;2022-11-09T16:01:49;10.95;92.34
72326;DHT22;60278;47.980;18.780;2022-11-09T16:05:39;10.94;92.44
72326;DHT22;60278;47.980;18.780;2022-11-09T16:09:28;10.90;92.83
72326;DHT22;60278;47.980;18.780;2022-11-09T16:13:18;10.91;92.86
72326;DHT22;60278;47.980;18.780;2022-11-09T16:17:07;11.01;92.40
72326;DHT22;60278;47.980;18.780;2022-11-09T16:20:56;10.98;92.77
72326;DHT22;60278;47.980;18.780;2022-11-09T16:24:47;10.98;93.38
72326;DHT22;60278;47.980;18.780;2022-11-09T16:28:36;10.94;93.77
72326;DHT22;60278;47.980;18.780;2022-11-09T16:32:28;10.94;93.66
72326;DHT22;60278;47.980;18.780;2022-11-09T16:36:23;10.91;94.42
72326;DHT22;60278;47.980;18.780;2022-11-09T16:40:14;10.92;94.62
72326;DHT22;60278;47.980;18.780;2022-11-09T16:44:04;10.88;94.23
72326;DHT22;60278;47.980;18.780;2022-11-09T16:47:54;10.77;94.79
72326;DHT22;60278;47.980;18.780;2022-11-09T16:51:44;10.74;94.97
72326;DHT22;60278;47.980;18.780;2022-11-09T16:55:34;10.64;95.41
72326;DHT22;60278;47.980;18.780;2022-11-09T16:59:24;10.68;95.39
72326;DHT22;60278;47.980;18.780;2022-11-09T17:03:15;10.65;95.75
72326;DHT22;60278;47.980;18.780;2022-11-09T17:07:04;10.59;96.27
72326;DHT22;60278;47.980;18.780;2022-11-09T17:10:54;10.56;96.07
72326;DHT22;60278;47.980;18.780;2022-11-09T17:14:43;10.68;95.61
72326;DHT22;60278;47.980;18.780;2022-11-09T17:18:33;10.57;96.68
72326;DHT22;60278;47.980;18.780;2022-11-09T17:22:22;10.50;97.39
72326;DHT22;60278;47.980;18.780;2022-11-09T17:26:12;10.50;96.84
72326;DHT22;60278;47.980;18.780;2022-11-09T17:30:03;10.47;97.02
72326;DHT22;60278;47.980;18.780;2022-11-09T17:33:54;10.40;97.14
72326;DHT22;60278;47.980;18.780;2022-11-09T17:37:44;10.39;96.63
72326;DHT22;60278;47.980;18.780;2022-11-09T17:41:34;10.28;96.88
72326;DHT22;60278;47.980;18.780;2022-11-09T17:45:24;10.17;97.17
72326;DHT22;60278;47.980;18.780;2022-11-09T17:49:13;10.17;97.33
72326;DHT22;60278;47.980;18.780;2022-11-09T17:53:03;10.13;97.40
72326;DHT22;60278;47.980;18.780;2022-11-09T17:56:52;10.06;97.73
72326;DHT22;60278;47.980;18.780;2022-11-09T18:00:42;9.96;97.62
72326;DHT22;60278;47.980;18.780;2022-11-09T18:04:32;9.86;97.92
72326;DHT22;60278;47.980;18.780;2022-11-09T18:08:21;10.02;97.55
72326;DHT22;60278;47.980;18.780;2022-11-09T18:12:11;9.79;97.92
72326;DHT22;60278;47.980;18.780;2022-11-09T18:16:06;9.75;98.21
72326;DHT22;60278;47.980;18.780;2022-11-09T18:19:56;9.77;98.46
72326;DHT22;60278;47.980;18.780;2022-11-09T18:23:45;9.71;98.17
72326;DHT22;60278;47.980;18.780;2022-11-09T18:27:34;9.67;98.80
72326;DHT22;60278;47.980;18.780;2022-11-09T18:31:24;9.72;98.86
72326;DHT22;60278;47.980;18.780;2022-11-09T18:35:13;9.65;98.67
72326;DHT22;60278;47.980;18.780;2022-11-09T18:39:03;9.72;98.80
72326;DHT22;60278;47.980;18.780;2022-11-09T18:42:53;9.74;98.86
72326;DHT22;60278;47.980;18.780;2022-11-09T18:46:42;9.72;98.91
72326;DHT22;60278;47.980;18.780;2022-11-09T18:50:31;9.77;98.37
72326;DHT22;60278;47.980;18.780;2022-11-09T18:54:21;9.78;98.65
72326;DHT22;60278;47.980;18.780;2022-11-09T18:58:11;9.81;99.16
72326;DHT22;60278;47.980;18.780;2022-11-09T19:02:01;9.82;98.78
72326;DHT22;60278;47.980;18.780;2022-11-09T19:05:50;9.91;98.62
72326;DHT22;60278;47.980;18.780;2022-11-09T19:09:40;9.86;98.83
72326;DHT22;60278;47.980;18.780;2022-11-09T19:13:30;9.89;98.95
72326;DHT22;60278;47.980;18.780;2022-11-09T19:17:19;9.91;98.98
72326;DHT22;60278;47.980;18.780;2022-11-09T19:21:31;9.86;99.61
72326;DHT22;60278;47.980;18.780;2022-11-09T19:25:22;9.85;99.54
72326;DHT22;60278;47.980;18.780;2022-11-09T19:29:13;9.89;99.71
72326;DHT22;60278;47.980;18.780;2022-11-09T19:33:03;10.06;98.84
72326;DHT22;60278;47.980;18.780;2022-11-09T19:36:52;9.95;99.33
72326;DHT22;60278;47.980;18.780;2022-11-09T19:40:42;9.85;99.57
72326;DHT22;60278;47.980;18.780;2022-11-09T19:44:31;9.82;99.38
72326;DHT22;60278;47.980;18.780;2022-11-09T19:48:21;9.79;99.61
72326;DHT22;60278;47.980;18.780;2022-11-09T19:52:10;9.86;99.99
72326;DHT22;60278;47.980;18.780;2022-11-09T19:56:02;9.89;99.72
72326;DHT22;60278;47.980;18.780;2022-11-09T19:59:59;9.79;99.80
72326;DHT22;60278;47.980;18.780;2022-11-09T20:03:50;9.88;99.54
72326;DHT22;60278;47.980;18.780;2022-11-09T20:07:40;9.89;99.61
72326;DHT22;60278;47.980;18.780;2022-11-09T20:11:29;9.83;99.54
72326;DHT22;60278;47.980;18.780;2022-11-09T20:15:38;9.96;98.86
72326;DHT22;60278;47.980;18.780;2022-11-09T20:19:27;9.81;99.59
72326;DHT22;60278;47.980;18.780;2022-11-09T20:23:16;9.54;99.99
72326;DHT22;60278;47.980;18.780;2022-11-09T20:27:06;9.45;99.99
72326;DHT22;60278;47.980;18.780;2022-11-09T20:30:55;9.41;99.99
72326;DHT22;60278;47.980;18.780;2022-11-09T20:34:45;9.37;99.99
72326;DHT22;60278;47.980;18.780;2022-11-09T20:38:34;9.40;99.99
72326;DHT22;60278;47.980;18.780;2022-11-09T20:42:24;9.38;99.99
72326;DHT22;60278;47.980;18.780;2022-11-09T20:46:16;9.35;99.99
72326;DHT22;60278;47.980;18.780;2022-11-09T20:50:06;9.44;99.99
72326;DHT22;60278;47.980;18.780;2022-11-09T20:53:56;9.54;99.99
72326;DHT22;60278;47.980;18.780;2022-11-09T20:57:46;9.48;99.99
72326;DHT22;60278;47.980;18.780;2022-11-09T21:01:36;9.50;99.99
72326;DHT22;60278;47.980;18.780;2022-11-09T21:05:25;9.70;99.57
72326;DHT22;60278;47.980;18.780;2022-11-09T21:09:15;9.64;99.45
72326;DHT22;60278;47.980;18.780;2022-11-09T21:13:04;9.58;99.99
72326;DHT22;60278;47.980;18.780;2022-11-09T21:16:53;9.59;99.85
72326;DHT22;60278;47.980;18.780;2022-11-09T21:20:43;9.51;99.99
72326;DHT22;60278;47.980;18.780;2022-11-09T21:24:32;9.59;99.80
72326;DHT22;60278;47.980;18.780;2022-11-09T21:28:40;9.67;99.54
72326;DHT22;60278;47.980;18.780;2022-11-09T21:32:59;9.58;99.81
72326;DHT22;60278;47.980;18.780;2022-11-09T21:36:49;9.61;99.87
72326;DHT22;60278;47.980;18.780;2022-11-09T21:40:38;9.59;99.79
72326;DHT22;60278;47.980;18.780;2022-11-09T21:44:29;9.75;98.94
72326;DHT22;60278;47.980;18.780;2022-11-09T21:48:18;9.62;99.59
72326;DHT22;60278;47.980;18.780;2022-11-09T21:52:08;9.62;99.85
72326;DHT22;60278;47.980;18.780;2022-11-09T21:56:00;9.61;99.95
72326;DHT22;60278;47.980;18.780;2022-11-09T21:59:49;9.61;99.99
72326;DHT22;60278;47.980;18.780;2022-11-09T22:03:39;9.65;99.99
72326;DHT22;60278;47.980;18.780;2022-11-09T22:07:29;9.57;99.99
72326;DHT22;60278;47.980;18.780;2022-11-09T22:11:21;9.65;99.91
72326;DHT22;60278;47.980;18.780;2022-11-09T22:15:30;9.74;99.28
72326;DHT22;60278;47.980;18.780;2022-11-09T22:19:38;9.61;99.93
72326;DHT22;60278;47.980;18.780;2022-11-09T22:23:47;9.54;99.99
72326;DHT22;60278;47.980;18.780;2022-11-09T22:27:36;9.54;99.99
72326;DHT22;60278;47.980;18.780;2022-11-09T22:31:26;9.57;99.99
72326;DHT22;60278;47.980;18.780;2022-11-09T22:35:16;9.59;99.98
72326;DHT22;60278;47.980;18.780;2022-11-09T22:39:05;9.68;99.64
72326;DHT22;60278;47.980;18.780;2022-11-09T22:42:55;9.70;98.71
72326;DHT22;60278;47.980;18.780;2022-11-09T22:46:46;9.70;98.60
72326;DHT22;60278;47.980;18.780;2022-11-09T22:50:36;9.52;98.78
72326;DHT22;60278;47.980;18.780;2022-11-09T22:54:26;9.54;98.33
72326;DHT22;60278;47.980;18.780;2022-11-09T22:58:16;9.45;98.32
72326;DHT22;60278;47.980;18.780;2022-11-09T23:02:05;9.45;98.80
72326;DHT22;60278;47.980;18.780;2022-11-09T23:06:00;9.43;98.81
72326;DHT22;60278;47.980;18.780;2022-11-09T23:09:49;9.51;99.15
72326;DHT22;60278;47.980;18.780;2022-11-09T23:13:39;9.41;99.34
72326;DHT22;60278;47.980;18.780;2022-11-09T23:17:35;9.54;99.43
72326;DHT22;60278;47.980;18.780;2022-11-09T23:21:43;9.44;99.62
72326;DHT22;60278;47.980;18.780;2022-11-09T23:25:32;9.43;99.69
72326;DHT22;60278;47.980;18.780;2022-11-09T23:29:40;9.59;98.98
72326;DHT22;60278;47.980;18.780;2022-11-09T23:33:30;9.62;98.58
72326;DHT22;60278;47.980;18.780;2022-11-09T23:37:19;9.75;98.10
72326;DHT22;60278;47.980;18.780;2022-11-09T23:41:10;9.81;97.93
72326;DHT22;60278;47.980;18.780;2022-11-09T23:44:59;9.70;97.87
72326;DHT22;60278;47.980;18.780;2022-11-09T23:48:49;9.59;98.25
72326;DHT22;60278;47.980;18.780;2022-11-09T23:52:38;9.51;99.01
72326;DHT22;60278;47.980;18.780;2022-11-09T23:56:27;9.47;99.19
